Time;durP1;ratioP1;P1;durP2;ratioP2;P2;SDS_P1;SDS_P2;PMS_P1;PMS_P2;Temp;Humidity;BMP_temperature;BMP_pressure;BME280_temperature;BME280_humidity;BME280_pressure;Samples;Min_cycle;Max_cycle;Signal;HPM_P1;HPM_P2
2021/03/17 00:01:36;;;;;;;5.13;4.03;;;5.50;85.30;;;4.36;71.59;98853.22;5037108;28;20423;-82
2021/03/17 00:04:02;;;;;;;5.82;3.78;;;5.40;85.10;;;4.35;72.06;98852.41;5020823;28;20479;-82
2021/03/17 00:06:28;;;;;;;4.43;3.60;;;5.50;85.30;;;4.46;71.52;98851.97;5037425;28;20421;-83
2021/03/17 00:08:54;;;;;;;5.30;3.33;;;5.50;84.90;;;4.39;71.77;98852.84;5038419;28;20407;-81
2021/03/17 00:11:20;;;;;;;4.05;3.30;;;5.50;84.90;;;4.39;71.69;98850.22;5040354;28;20418;-81
2021/03/17 00:13:46;;;;;;;3.80;3.40;;;5.50;85.20;;;4.43;71.66;98847.09;5041329;28;20434;-82
2021/03/17 00:16:13;;;;;;;4.38;3.60;;;5.50;85.10;;;4.42;72.07;98845.47;5040068;28;20580;-83
2021/03/17 00:18:39;;;;;;;4.10;3.60;;;5.60;85.30;;;4.50;71.17;98848.03;5037075;28;20507;-83
2021/03/17 00:21:05;;;;;;;4.57;3.70;;;5.60;84.90;;;4.56;71.20;98847.31;5037030;28;20800;-83
2021/03/17 00:23:31;;;;;;;4.05;3.40;;;5.70;84.50;;;4.53;71.16;98844.22;5037607;28;20441;-82
2021/03/17 00:25:58;;;;;;;3.65;3.28;;;5.60;84.50;;;4.50;71.24;98845.41;5034945;28;20438;-83
2021/03/17 00:28:24;;;;;;;4.05;3.65;;;5.60;85.20;;;4.56;70.88;98838.63;5036018;28;20812;-83
2021/03/17 00:30:50;;;;;;;3.77;3.40;;;5.60;84.60;;;4.49;71.20;98842.97;5036449;28;20411;-83
2021/03/17 00:33:19;;;;;;;4.38;3.67;;;5.60;84.40;;;4.46;71.77;98835.44;5035784;28;20479;-82
2021/03/17 00:35:47;;;;;;;4.40;3.58;;;5.60;85.10;;;4.40;71.82;98839.59;5036735;28;20431;-83
2021/03/17 00:38:13;;;;;;;4.57;3.80;;;5.50;85.60;;;4.44;71.62;98832.16;5035851;28;20422;-82
2021/03/17 00:40:39;;;;;;;4.45;3.97;;;5.60;85.10;;;4.42;71.93;98831.53;5035775;28;20531;-82
2021/03/17 00:43:17;;;;;;;4.30;3.90;;;5.50;85.30;;;4.40;71.93;98829.09;5036620;28;20784;-83
2021/03/17 00:45:43;;;;;;;4.85;3.78;;;5.50;85.30;;;4.34;71.87;98832.44;5036782;28;20502;-83
2021/03/17 00:48:09;;;;;;;4.88;3.80;;;5.50;85.30;;;4.29;72.22;98821.63;5035403;28;20723;-82
2021/03/17 00:50:36;;;;;;;4.38;3.78;;;5.40;85.60;;;4.24;72.56;98824.78;5019799;28;20415;-82
2021/03/17 00:53:03;;;;;;;4.70;3.83;;;5.40;85.90;;;4.07;73.16;98820.66;5036998;28;20455;-81
2021/03/17 00:55:29;;;;;;;6.18;4.28;;;5.30;86.40;;;3.82;74.75;98820.00;5036502;28;20427;-84
2021/03/17 00:57:55;;;;;;;5.27;4.40;;;5.00;87.90;;;3.63;75.93;98819.59;5040656;28;20450;-84
2021/03/17 01:00:23;;;;;;;6.27;5.10;;;4.90;89.50;;;3.58;76.36;98811.47;5040800;28;20418;-84
2021/03/17 01:02:49;;;;;;;6.33;5.00;;;4.80;90.00;;;3.66;76.83;98812.25;5042105;28;20443;-83
2021/03/17 01:05:16;;;;;;;5.25;4.75;;;4.80;90.30;;;3.47;77.33;98805.59;5042708;28;20414;-84
2021/03/17 01:07:43;;;;;;;8.23;5.85;;;4.70;90.40;;;3.45;76.67;98801.56;5024967;28;20491;-84
2021/03/17 01:10:12;;;;;;;5.68;4.97;;;4.60;90.20;;;3.44;76.87;98799.91;5047091;28;20412;-84
2021/03/17 01:12:39;;;;;;;5.97;5.38;;;4.60;90.30;;;3.44;77.06;98800.72;5052474;28;20403;-84
2021/03/17 01:15:08;;;;;;;6.78;5.55;;;4.60;90.50;;;3.56;76.84;98803.78;5051158;28;20423;-81
2021/03/17 01:17:34;;;;;;;5.88;4.95;;;4.70;90.50;;;3.66;76.86;98793.09;5042554;28;20719;-81
2021/03/17 01:20:01;;;;;;;7.57;5.50;;;4.80;90.40;;;3.65;76.01;98792.28;5037532;28;20511;-83
2021/03/17 01:22:27;;;;;;;6.10;4.82;;;4.80;89.90;;;3.72;76.28;98801.06;5036379;28;20419;-84
2021/03/17 01:24:54;;;;;;;7.13;5.17;;;4.90;90.10;;;3.77;76.17;98795.31;5037561;28;20498;-83
2021/03/17 01:27:20;;;;;;;5.90;5.05;;;4.90;90.10;;;3.87;75.48;98794.09;5039735;28;20430;-83
2021/03/17 01:29:46;;;;;;;6.20;5.30;;;5.00;89.80;;;3.92;75.63;98796.19;5037616;28;20479;-83
2021/03/17 01:32:12;;;;;;;5.47;4.93;;;5.10;89.60;;;4.01;75.42;98799.56;5039565;28;20419;-84
2021/03/17 01:34:38;;;;;;;5.55;4.90;;;5.10;90.10;;;4.12;74.68;98800.00;5042578;28;20483;-84
2021/03/17 01:37:04;;;;;;;5.78;5.00;;;5.20;89.00;;;4.03;74.89;98794.97;5045072;28;20430;-86
2021/03/17 01:39:30;;;;;;;6.45;5.30;;;5.20;88.80;;;4.19;74.73;98794.88;5040333;28;20407;-84
2021/03/17 01:41:57;;;;;;;5.70;4.72;;;5.20;88.90;;;4.15;74.21;98799.63;5038953;28;20415;-84
2021/03/17 01:44:23;;;;;;;6.57;5.38;;;5.30;88.10;;;4.07;74.58;98793.63;5039748;28;20407;-85
2021/03/17 01:46:50;;;;;;;5.70;5.10;;;5.20;88.20;;;3.95;75.29;98798.47;5029780;28;20429;-83
2021/03/17 01:49:16;;;;;;;6.57;5.20;;;5.10;88.80;;;3.74;76.33;98790.44;5053511;28;20426;-84
2021/03/17 01:51:42;;;;;;;6.63;5.32;;;5.00;89.90;;;3.57;76.75;98787.09;5053615;28;20546;-83
2021/03/17 01:54:09;;;;;;;7.20;5.60;;;4.80;90.20;;;3.50;77.25;98788.75;5052283;28;20439;-85
2021/03/17 01:56:35;;;;;;;6.90;6.03;;;4.70;90.60;;;3.63;77.00;98783.75;5043675;28;20462;-84
2021/03/17 01:59:02;;;;;;;6.57;5.53;;;4.80;90.60;;;3.67;76.13;98785.06;5038850;28;20423;-84
2021/03/17 02:01:28;;;;;;;7.00;5.60;;;4.80;90.10;;;3.77;75.98;98790.06;5019188;28;20591;-84
2021/03/17 02:03:54;;;;;;;5.95;5.13;;;4.90;90.10;;;3.85;75.56;98784.78;5036653;28;20794;-84
2021/03/17 02:06:20;;;;;;;6.00;5.18;;;4.90;89.70;;;3.82;75.92;98783.34;5036986;28;20418;-84
2021/03/17 02:08:46;;;;;;;8.50;5.50;;;4.90;89.80;;;3.75;76.19;98777.16;5019116;28;20502;-83
2021/03/17 02:11:13;;;;;;;6.43;5.45;;;4.90;90.00;;;3.68;76.32;98773.63;5040515;28;20415;-82
2021/03/17 02:14:08;;;;;;;6.13;5.32;;;4.80;90.00;;;3.79;76.49;98781.06;5043459;28;20523;-84
2021/03/17 02:16:39;;;;;;;7.05;5.10;;;4.90;90.30;;;3.84;76.63;98780.53;5037341;28;20486;-84
2021/03/17 02:19:57;;;;;;;5.65;5.00;;;4.90;90.30;;;3.92;75.58;98779.66;5017376;28;20455;-84
2021/03/17 02:22:44;;;;;;;5.20;4.70;;;5.10;89.80;;;4.01;74.70;98782.06;5019229;28;20491;-83
2021/03/17 02:25:48;;;;;;;6.18;5.13;;;5.10;88.80;;;3.82;75.53;98785.13;5035573;28;20411;-84
2021/03/17 02:28:34;;;;;;;5.13;4.57;;;5.00;89.10;;;3.64;75.78;98781.97;5039571;28;20446;-84
2021/03/17 02:31:37;;;;;;;6.07;4.50;;;4.80;89.60;;;3.63;75.99;98783.75;5029568;28;20504;-84
2021/03/17 02:34:09;;;;;;;5.00;4.50;;;4.80;90.00;;;3.65;76.76;98776.56;5039028;28;20638;-84
2021/03/17 02:36:41;;;;;;;5.05;4.55;;;4.70;90.40;;;3.70;76.27;98786.50;5044041;28;20419;-84
2021/03/17 02:39:14;;;;;;;5.10;4.22;;;4.80;90.20;;;3.74;76.18;98786.00;5027647;28;20443;-84
2021/03/17 02:41:46;;;;;;;5.38;4.45;;;4.80;90.10;;;3.81;75.82;98791.38;5039492;28;20411;-85
2021/03/17 02:44:17;;;;;;;5.13;4.25;;;4.90;90.10;;;3.83;75.53;98792.00;5018498;28;20412;-84
2021/03/17 02:46:45;;;;;;;5.47;4.50;;;4.90;89.80;;;3.83;75.17;98786.78;5036994;28;20417;-83
2021/03/17 02:49:18;;;;;;;4.53;4.13;;;4.90;89.30;;;3.74;75.56;98790.44;5035352;28;20825;-83
2021/03/17 02:51:50;;;;;;;5.03;4.50;;;4.90;89.50;;;3.73;75.56;98783.56;5036193;28;20411;-83
2021/03/17 02:54:19;;;;;;;4.20;3.80;;;4.80;90.20;;;3.66;75.99;98790.47;5038292;28;20419;-83
2021/03/17 02:56:51;;;;;;;4.65;4.25;;;4.80;89.60;;;3.64;75.89;98785.41;5038088;28;20781;-84
2021/03/17 02:59:21;;;;;;;4.60;4.10;;;4.80;89.90;;;3.64;75.88;98782.78;5042459;28;20407;-83
2021/03/17 03:01:52;;;;;;;5.28;4.30;;;4.80;90.30;;;3.65;75.56;98781.81;5048626;28;20693;-83
2021/03/17 03:04:20;;;;;;;4.85;3.83;;;4.80;89.50;;;3.55;76.25;98783.81;5040021;28;20423;-83
2021/03/17 03:06:50;;;;;;;4.65;3.67;;;4.70;90.00;;;3.53;76.67;98777.13;5045956;28;20422;-83
2021/03/17 03:09:18;;;;;;;3.75;3.45;;;4.70;89.90;;;3.54;76.13;98782.19;5032097;28;20411;-83
2021/03/17 03:11:44;;;;;;;4.10;3.70;;;4.70;90.00;;;3.63;76.05;98785.56;5046581;28;20447;-83
2021/03/17 03:14:12;;;;;;;4.25;3.53;;;4.70;90.10;;;3.48;75.88;98781.06;5040629;28;20439;-85
2021/03/17 03:16:40;;;;;;;5.95;3.70;;;4.70;89.70;;;3.41;76.33;98776.69;5040070;28;20448;-84
2021/03/17 03:19:07;;;;;;;4.40;4.00;;;4.60;90.00;;;3.40;76.13;98775.88;5022711;28;20509;-84
2021/03/17 03:21:35;;;;;;;5.25;3.83;;;4.60;90.10;;;3.11;77.41;98775.69;5040481;28;20415;-83
2021/03/17 03:24:03;;;;;;;4.70;4.20;;;4.40;90.50;;;3.03;77.76;98767.84;5038337;28;20418;-84
2021/03/17 03:26:34;;;;;;;4.63;3.83;;;4.20;90.90;;;2.94;78.12;98780.13;5022564;28;20419;-84
2021/03/17 03:29:03;;;;;;;4.80;4.30;;;4.20;90.90;;;2.90;78.55;98776.25;5039197;28;20432;-84
2021/03/17 03:31:29;;;;;;;7.20;4.15;;;4.10;91.20;;;3.06;78.42;98786.66;5021440;28;20440;-83
2021/03/17 03:33:55;;;;;;;5.28;4.22;;;4.20;91.30;;;3.08;77.94;98787.28;5039357;28;20511;-84
2021/03/17 03:36:24;;;;;;;4.97;4.20;;;4.30;91.00;;;3.08;77.87;98786.50;5038850;28;20400;-83
2021/03/17 03:38:51;;;;;;;4.53;4.07;;;4.30;90.90;;;3.14;77.58;98788.44;5022059;28;20488;-84
2021/03/17 03:41:17;;;;;;;4.25;3.85;;;4.30;90.90;;;3.07;77.64;98783.06;5040005;28;20701;-84
2021/03/17 03:43:43;;;;;;;4.32;3.78;;;4.30;90.90;;;3.00;78.06;98783.91;5039112;28;20464;-83
2021/03/17 03:46:10;;;;;;;5.82;4.30;;;4.20;90.90;;;2.95;78.11;98784.38;5040657;28;20414;-84
2021/03/17 03:48:37;;;;;;;6.70;4.37;;;4.20;91.30;;;2.98;78.17;98778.84;5040215;28;20464;-83
2021/03/17 03:51:04;;;;;;;4.60;4.15;;;4.20;91.10;;;3.02;78.14;98781.91;5040463;28;20404;-84
2021/03/17 03:53:45;;;;;;;5.40;4.07;;;4.20;91.00;;;2.97;78.34;98787.66;5040772;28;20413;-84
2021/03/17 03:56:17;;;;;;;4.35;3.95;;;4.20;91.10;;;2.91;78.23;98785.72;5039773;28;20451;-84
2021/03/17 03:58:49;;;;;;;4.82;3.90;;;4.10;91.10;;;3.00;78.12;98787.34;5038557;28;20429;-84
2021/03/17 04:01:23;;;;;;;4.93;4.20;;;4.20;91.20;;;3.05;77.95;98785.03;5040024;28;20419;-83
2021/03/17 04:03:57;;;;;;;5.28;4.75;;;4.20;91.10;;;3.02;78.13;98789.75;5039145;28;20426;-85
2021/03/17 04:06:25;;;;;;;4.53;4.10;;;4.20;90.90;;;2.99;78.03;98782.28;5040051;28;20805;-84
2021/03/17 04:08:56;;;;;;;6.43;4.72;;;4.20;90.90;;;3.00;77.75;98789.13;5039271;28;20410;-84
2021/03/17 04:11:24;;;;;;;5.97;4.72;;;4.20;90.90;;;2.88;78.59;98795.69;5038813;28;20455;-85
2021/03/17 04:13:51;;;;;;;7.18;5.30;;;4.10;91.20;;;2.76;78.70;98797.03;5039260;28;20686;-85
2021/03/17 04:16:21;;;;;;;6.45;5.10;;;4.00;91.30;;;2.80;79.07;98803.56;5039826;28;20447;-84
2021/03/17 04:18:48;;;;;;;6.25;5.10;;;4.00;91.50;;;2.78;78.99;98800.31;5038361;28;20411;-84
2021/03/17 04:21:18;;;;;;;6.78;5.20;;;4.00;91.50;;;2.84;79.01;98805.69;5038829;28;20411;-85
2021/03/17 04:23:48;;;;;;;5.97;5.37;;;4.00;91.60;;;2.85;79.14;98814.34;5038530;28;20512;-84
2021/03/17 04:26:16;;;;;;;6.60;5.57;;;4.10;91.50;;;2.86;79.33;98808.09;5021762;28;20427;-85
2021/03/17 04:28:44;;;;;;;6.20;5.10;;;4.00;91.90;;;2.98;78.00;98810.22;5038396;28;20400;-84
2021/03/17 04:31:12;;;;;;;6.65;5.38;;;4.10;91.40;;;2.98;78.37;98807.59;5038489;28;20444;-84
2021/03/17 04:33:39;;;;;;;7.03;6.00;;;4.20;91.10;;;2.98;78.30;98819.88;5040474;28;20721;-84
2021/03/17 04:36:07;;;;;;;8.00;6.00;;;4.20;91.20;;;3.00;78.36;98812.69;5039327;28;20514;-84
2021/03/17 04:38:35;;;;;;;7.15;5.78;;;4.20;91.20;;;3.00;78.69;98812.69;5038812;28;20417;-84
2021/03/17 04:41:02;;;;;;;7.95;6.07;;;4.20;91.30;;;3.06;78.24;98815.44;5039456;28;20472;-83
2021/03/17 04:43:28;;;;;;;7.47;5.70;;;4.20;91.20;;;3.09;78.48;98816.88;5021626;28;20487;-84
2021/03/17 04:45:59;;;;;;;10.80;7.50;;;4.30;91.30;;;3.18;78.26;98815.88;5039499;28;20471;-83
2021/03/17 04:48:26;;;;;;;7.82;6.47;;;4.30;91.30;;;3.18;77.53;98821.09;5043232;28;20442;-81
2021/03/17 04:50:54;;;;;;;8.23;6.20;;;4.30;90.90;;;3.16;78.00;98819.66;5042891;28;20414;-83
2021/03/17 04:53:21;;;;;;;6.97;6.20;;;4.30;91.10;;;3.02;78.49;98823.75;5040996;28;20885;-82
2021/03/17 04:55:47;;;;;;;9.02;7.38;;;4.20;91.20;;;3.02;78.86;98819.34;5041462;28;20463;-82
2021/03/17 04:58:20;;;;;;;7.63;6.82;;;4.20;91.40;;;3.04;78.67;98827.03;5033213;28;20435;-80
2021/03/17 05:00:49;;;;;;;9.10;7.43;;;4.20;91.70;;;3.08;78.16;98821.28;5041545;28;20485;-83
2021/03/17 05:03:21;;;;;;;8.23;6.85;;;4.30;91.20;;;3.03;78.55;98821.00;5039994;28;20419;-83
2021/03/17 05:05:51;;;;;;;9.03;7.57;;;4.20;91.30;;;2.93;78.79;98827.41;5040856;28;20828;-82
2021/03/17 05:08:19;;;;;;;9.20;7.50;;;4.20;91.30;;;2.90;79.15;98831.16;5040241;28;20750;-80
2021/03/17 05:10:46;;;;;;;9.93;8.38;;;4.10;91.60;;;2.80;79.53;98832.31;5039503;28;20495;-82
2021/03/17 05:13:14;;;;;;;10.63;8.93;;;4.00;92.00;;;2.84;79.33;98824.00;5041104;28;20826;-82
2021/03/17 05:15:42;;;;;;;10.75;9.05;;;4.00;91.90;;;2.79;79.49;98825.44;5043951;28;20452;-83
2021/03/17 05:18:13;;;;;;;10.63;8.73;;;4.00;91.80;;;2.86;79.78;98844.72;5041699;28;20414;-81
2021/03/17 05:20:43;;;;;;;10.75;8.48;;;4.00;92.00;;;2.90;79.67;98836.38;5050580;28;20399;-82
2021/03/17 05:23:12;;;;;;;10.95;8.32;;;4.10;92.00;;;2.95;79.44;98841.13;5044661;28;20448;-82
2021/03/17 05:25:38;;;;;;;11.32;8.55;;;4.10;92.20;;;3.06;79.19;98838.16;5048077;28;20414;-84
2021/03/17 05:28:04;;;;;;;11.75;8.75;;;4.20;91.80;;;3.16;78.84;98840.59;5044684;28;20427;-83
2021/03/17 05:30:33;;;;;;;11.48;9.25;;;4.30;91.60;;;3.17;78.72;98835.16;5043649;28;20406;-84
2021/03/17 05:33:01;;;;;;;12.32;9.65;;;4.30;91.40;;;3.04;78.49;98832.28;5044226;28;20419;-83
2021/03/17 05:35:28;;;;;;;11.85;9.77;;;4.30;91.20;;;3.04;79.25;98832.28;5044495;28;20426;-83
2021/03/17 05:37:56;;;;;;;13.25;10.35;;;4.20;91.60;;;3.08;78.56;98836.19;5042628;28;20425;-83
2021/03/17 05:40:23;;;;;;;11.75;9.85;;;4.30;91.50;;;3.10;78.82;98840.25;5044760;28;20467;-82
2021/03/17 05:42:49;;;;;;;13.50;10.37;;;4.30;91.60;;;3.03;78.77;98841.09;5053018;28;20436;-83
2021/03/17 05:45:17;;;;;;;16.40;11.95;;;4.30;91.60;;;2.99;79.25;98845.03;5051853;28;20412;-82
2021/03/17 05:47:46;;;;;;;17.40;11.90;;;4.20;91.60;;;2.82;79.67;98846.88;5046845;28;20433;-83
2021/03/17 05:50:16;;;;;;;18.33;12.83;;;4.10;91.80;;;2.89;80.10;98853.06;5046963;28;20461;-83
2021/03/17 05:52:44;;;;;;;17.65;12.95;;;4.10;92.20;;;2.82;80.29;98854.72;5050640;28;20407;-83
2021/03/17 05:55:13;;;;;;;18.17;13.55;;;4.00;92.20;;;2.88;80.44;98854.03;5049272;28;20513;-81
2021/03/17 05:57:40;;;;;;;18.03;13.17;;;4.10;92.40;;;3.01;79.83;98858.75;5028947;28;20448;-84
2021/03/17 06:00:10;;;;;;;17.40;13.95;;;4.20;92.10;;;3.04;79.41;98861.03;5043723;28;20410;-82
2021/03/17 06:02:37;;;;;;;16.30;12.35;;;4.20;91.80;;;3.01;79.54;98863.97;5045747;28;20435;-80
2021/03/17 06:05:06;;;;;;;18.33;14.38;;;4.20;91.70;;;3.02;79.43;98868.22;5031966;28;20407;-81
2021/03/17 06:07:43;;;;;;;18.08;13.57;;;4.20;91.90;;;2.99;79.96;98868.59;5050039;28;20438;-85
2021/03/17 06:10:14;;;;;;;19.85;14.52;;;4.20;92.00;;;3.05;79.57;98870.53;5050691;28;20424;-84
2021/03/17 06:15:37;;;;;;;20.98;15.45;;;4.20;91.80;;;3.05;79.58;98873.97;5017357;26;20430;-82
2021/03/17 06:18:15;;;;;;;19.07;14.57;;;4.20;91.90;;;3.01;79.44;98871.81;5093411;28;20540;-83
2021/03/17 06:20:43;;;;;;;22.52;15.63;;;4.20;91.80;;;2.81;79.85;98867.94;5092364;28;20741;-82
2021/03/17 06:23:17;;;;;;;22.77;16.20;;;4.10;91.90;;;2.82;80.91;98878.25;5114000;28;20413;-83
2021/03/17 06:25:45;;;;;;;24.25;16.77;;;4.00;92.60;;;2.83;80.76;98877.25;5114100;28;20406;-82
2021/03/17 06:28:12;;;;;;;22.02;16.67;;;4.00;92.40;;;2.93;80.85;98883.13;5097006;28;20421;-83
2021/03/17 06:30:39;;;;;;;21.67;16.23;;;4.10;92.60;;;2.94;80.22;98881.31;5113852;28;20394;-85
2021/03/17 06:33:06;;;;;;;23.60;16.60;;;4.10;92.20;;;2.90;80.48;98888.69;5116351;28;20867;-85
2021/03/17 06:35:32;;;;;;;23.77;17.40;;;4.10;92.30;;;2.96;80.22;98884.59;5116115;28;20426;-84
2021/03/17 06:37:59;;;;;;;23.95;17.60;;;4.10;92.40;;;2.97;80.09;98889.66;5112718;28;20490;-84
2021/03/17 06:40:30;;;;;;;23.45;17.38;;;4.20;92.20;;;2.84;80.64;98880.69;5110905;28;20432;-84
2021/03/17 06:43:08;;;;;;;24.45;17.90;;;4.10;92.40;;;2.93;80.76;98892.78;5091021;28;20410;-84
2021/03/17 06:45:38;;;;;;;28.42;19.55;;;4.10;92.60;;;2.97;80.58;98889.66;5104945;28;20438;-84
2021/03/17 06:48:25;;;;;;;24.92;17.40;;;4.20;92.50;;;3.05;80.29;98883.59;5104927;28;20402;-83
2021/03/17 06:51:04;;;;;;;24.98;18.60;;;4.20;92.30;;;2.97;80.22;98899.31;5104786;28;20413;-83
2021/03/17 06:53:40;;;;;;;24.33;17.05;;;4.20;92.20;;;2.88;80.78;98908.13;5104539;28;20406;-84
2021/03/17 06:56:17;;;;;;;23.75;17.60;;;4.10;92.50;;;3.03;80.46;98911.72;5103943;28;20445;-83
2021/03/17 06:58:46;;;;;;;21.42;15.70;;;4.20;92.50;;;2.91;79.82;98913.88;5105068;28;20406;-82
2021/03/17 07:01:27;;;;;;;20.35;15.73;;;4.20;92.00;;;2.80;80.34;98923.84;5106450;28;20410;-84
2021/03/17 07:03:56;;;;;;;19.90;15.70;;;4.00;92.20;;;2.83;80.40;98923.50;5105769;28;20759;-83
2021/03/17 07:06:23;;;;;;;21.63;15.98;;;4.00;92.40;;;2.84;80.52;98930.38;5106281;28;20680;-88
2021/03/17 07:08:50;;;;;;;18.75;14.50;;;4.00;92.40;;;2.73;80.90;98918.44;5114856;28;20405;-85
2021/03/17 07:11:28;;;;;;;21.02;15.90;;;4.00;92.50;;;2.88;80.36;98923.84;5114407;28;20417;-84
2021/03/17 07:13:59;;;;;;;19.65;15.25;;;4.00;92.40;;;2.95;80.29;98932.66;5113793;28;20418;-84
2021/03/17 07:16:35;;;;;;;20.20;15.07;;;4.10;92.30;;;3.02;80.01;98920.53;5106385;28;20418;-82
2021/03/17 07:19:04;;;;;;;20.25;15.35;;;4.20;92.30;;;3.11;79.71;98928.22;5103713;28;20421;-84
2021/03/17 07:21:34;;;;;;;18.80;13.77;;;4.20;92.00;;;3.14;79.47;98926.28;5102259;28;20435;-85
2021/03/17 07:24:01;;;;;;;19.20;13.67;;;4.30;91.90;;;2.91;79.04;98933.97;5101684;28;20409;-83
2021/03/17 07:26:29;;;;;;;19.17;14.15;;;4.20;91.40;;;2.92;79.88;98936.44;5101682;28;20444;-85
2021/03/17 07:29:06;;;;;;;19.40;14.02;;;4.10;92.10;;;2.93;79.77;98938.03;5101981;28;20437;-84
2021/03/17 07:31:35;;;;;;;19.52;14.77;;;4.20;91.90;;;3.06;79.55;98930.53;5104084;28;20414;-84
2021/03/17 07:34:21;;;;;;;19.52;14.20;;;4.20;92.00;;;3.09;79.44;98922.34;5083976;28;20417;-83
2021/03/17 07:36:54;;;;;;;17.73;13.57;;;4.30;92.30;;;3.15;78.97;98926.13;5100799;28;20420;-83
2021/03/17 07:39:25;;;;;;;16.13;12.70;;;4.30;91.70;;;3.27;78.53;98930.00;5083372;28;20592;-84
2021/03/17 07:41:54;;;;;;;17.40;12.15;;;4.40;91.50;;;3.28;78.20;98922.97;5100627;28;20414;-82
2021/03/17 07:44:22;;;;;;;19.75;13.38;;;4.40;91.20;;;3.34;77.98;98936.22;5100010;28;20398;-84
2021/03/17 07:46:50;;;;;;;19.35;14.00;;;4.50;91.30;;;3.38;77.96;98928.84;5100181;28;20409;-84
2021/03/17 07:49:18;;;;;;;18.02;13.07;;;4.50;91.20;;;3.44;77.49;98938.66;5101198;28;20398;-83
2021/03/17 07:51:51;;;;;;;20.77;12.75;;;4.60;90.90;;;3.43;77.88;98942.25;5101067;28;20410;-83
2021/03/17 07:54:27;;;;;;;20.50;13.80;;;4.60;90.90;;;3.30;77.60;98937.53;5101573;28;20434;-83
2021/03/17 07:56:54;;;;;;;23.02;13.88;;;4.50;90.80;;;3.31;78.31;98939.13;5084503;28;20456;-83
2021/03/17 07:59:22;;;;;;;21.52;13.30;;;4.50;91.20;;;3.47;77.81;98951.38;5105572;28;20402;-83
2021/03/17 08:01:50;;;;;;;18.90;12.60;;;4.60;91.20;;;3.58;76.80;98948.41;5102713;28;20405;-82
2021/03/17 08:04:16;;;;;;;18.88;12.50;;;4.70;90.50;;;3.64;75.97;98946.91;5085949;28;20646;-84
2021/03/17 08:06:44;;;;;;;19.60;12.85;;;4.70;90.10;;;3.68;75.84;98946.44;5103738;28;20414;-84
2021/03/17 08:09:10;;;;;;;17.42;10.57;;;4.80;90.20;;;3.59;73.72;98944.00;5103476;28;20398;-85
2021/03/17 08:11:37;;;;;;;17.40;11.52;;;4.80;87.60;;;3.62;73.33;98944.47;5102806;28;20410;-84
2021/03/17 08:14:06;;;;;;;16.05;10.90;;;4.70;87.40;;;3.78;74.26;98939.19;5103263;28;20541;-83
2021/03/17 08:16:36;;;;;;;13.02;7.47;;;4.90;88.30;;;3.85;70.32;98939.31;5085420;28;20410;-84
2021/03/17 08:19:20;;;;;;;13.13;8.25;;;4.90;83.80;;;3.86;69.63;98941.78;5103953;28;20458;-84
2021/03/17 08:21:50;;;;;;;12.98;9.10;;;5.00;83.30;;;3.90;71.41;98931.78;5085324;28;20421;-82
2021/03/17 08:24:43;;;;;;;14.80;9.65;;;5.00;85.30;;;4.05;71.64;98935.31;5103560;28;20390;-83
2021/03/17 08:27:24;;;;;;;12.18;8.13;;;5.10;85.60;;;3.99;68.56;98930.72;5111709;28;20413;-84
2021/03/17 08:30:10;;;;;;;16.70;10.13;;;5.20;81.40;;;4.10;70.46;98938.22;5110287;28;20585;-84
2021/03/17 08:32:59;;;;;;;17.73;10.38;;;5.20;84.70;;;4.25;68.79;98935.69;5111816;28;20447;-83
2021/03/17 08:36:07;;;;;;;17.83;10.30;;;5.30;82.20;;;4.47;68.65;98942.75;5112226;28;20421;-83
2021/03/17 08:38:47;;;;;;;20.08;10.18;;;5.50;83.00;;;4.34;68.53;98934.66;5111620;28;20409;-83
2021/03/17 08:41:13;;;;;;;15.07;10.68;;;5.50;81.70;;;4.36;69.65;98939.72;5111472;28;20855;-84
2021/03/17 08:43:47;;;;;;;20.23;12.82;;;5.50;82.80;;;4.43;69.95;98943.28;5103505;28;20406;-84
2021/03/17 08:46:16;;;;;;;20.70;12.70;;;5.50;83.70;;;4.52;70.29;98947.47;5104022;28;20410;-83
2021/03/17 08:49:02;;;;;;;18.77;11.23;;;5.60;83.80;;;4.56;68.82;98935.66;5103347;28;20437;-84
2021/03/17 08:52:09;;;;;;;19.98;11.20;;;5.70;82.00;;;4.53;66.90;98949.09;5101369;28;20414;-82
2021/03/17 08:55:00;;;;;;;19.05;10.15;;;5.70;80.20;;;4.68;66.75;98937.69;5103432;28;20430;-84
2021/03/17 08:58:05;;;;;;;18.02;10.07;;;5.70;79.80;;;4.77;67.47;98937.63;5100749;28;20440;-82
2021/03/17 09:00:56;;;;;;;19.25;11.02;;;5.80;80.40;;;4.91;68.07;98929.00;5104697;28;20410;-82
2021/03/17 09:03:46;;;;;;;16.75;8.23;;;6.00;81.10;;;5.08;64.66;98930.47;5100315;28;20425;-81
2021/03/17 09:06:34;;;;;;;13.27;8.60;;;6.10;77.40;;;4.87;64.40;98930.34;5105154;28;20453;-84
2021/03/17 09:09:07;;;;;;;13.60;8.57;;;6.00;76.40;;;4.74;64.91;98922.22;5080342;28;20859;-82
2021/03/17 09:11:55;;;;;;;13.57;7.90;;;5.80;77.10;;;4.54;63.73;98921.91;5104085;28;20410;-85
2021/03/17 09:14:27;;;;;;;15.02;8.45;;;5.70;75.70;;;4.50;64.64;98923.25;5105945;28;20491;-84
2021/03/17 09:17:28;;;;;;;11.93;7.90;;;5.60;77.10;;;4.65;62.97;98917.06;5106853;28;20409;-82
2021/03/17 09:20:33;;;;;;;10.45;7.85;;;5.70;76.30;;;4.74;60.80;98914.38;5110066;28;20398;-81
2021/03/17 09:23:08;;;;;;;14.05;7.03;;;5.80;74.40;;;4.95;61.13;98912.72;5107500;28;20401;-82
2021/03/17 09:25:40;;;;;;;11.48;6.88;;;6.00;73.60;;;5.08;60.73;98914.75;5108914;28;20418;-85
2021/03/17 09:28:08;;;;;;;10.00;6.07;;;6.10;72.90;;;5.18;58.76;98911.88;5105535;28;20660;-83
2021/03/17 09:30:44;;;;;;;24.60;12.45;;;6.20;70.70;;;5.11;57.86;98908.31;5100852;28;20545;-84
2021/03/17 09:33:15;;;;;;;7.07;4.93;;;6.20;69.00;;;5.05;56.53;98915.91;5101296;28;20622;-83
2021/03/17 09:35:47;;;;;;;10.05;6.40;;;6.20;67.40;;;5.10;58.19;98919.81;5098919;28;20703;-83
2021/03/17 09:38:16;;;;;;;12.95;7.22;;;6.20;69.10;;;5.32;58.35;98913.69;5099535;28;20410;-84
2021/03/17 09:40:52;;;;;;;10.65;6.50;;;6.30;69.90;;;5.07;58.84;98923.59;5098998;28;20487;-85
2021/03/17 09:43:41;;;;;;;10.68;5.90;;;6.30;69.90;;;4.68;58.32;98927.19;5109635;28;20438;-83
2021/03/17 09:46:34;;;;;;;14.68;6.60;;;5.90;69.00;;;4.86;60.05;98919.03;5108195;28;20428;-84
2021/03/17 09:49:05;;;;;;;10.93;6.63;;;5.90;71.20;;;4.98;59.78;98907.09;5107349;28;20708;-83
2021/03/17 09:51:37;;;;;;;12.27;6.65;;;6.10;71.40;;;5.10;58.13;98910.13;5111598;28;20516;-83
2021/03/17 09:54:07;;;;;;;11.90;5.80;;;6.20;70.00;;;5.13;57.55;98920.25;5108934;28;20713;-84
2021/03/17 09:56:46;;;;;;;17.35;6.47;;;6.20;68.10;;;5.34;57.99;98915.13;5107038;28;20414;-84
2021/03/17 09:59:22;;;;;;;14.82;6.10;;;6.40;69.20;;;5.60;57.19;98904.19;5099241;28;20452;-85
2021/03/17 10:01:55;;;;;;;50.95;8.95;;;6.60;68.50;;;5.60;56.16;98906.81;5106818;28;20660;-82
2021/03/17 10:04:23;;;;;;;28.38;7.80;;;6.80;66.70;;;5.69;55.72;98897.84;5105888;28;20406;-84
2021/03/17 10:06:50;;;;;;;10.80;5.35;;;6.70;66.50;;;5.70;55.06;98896.84;5104331;28;20425;-83
2021/03/17 10:09:18;;;;;;;9.60;5.57;;;6.70;65.50;;;5.69;54.22;98899.66;5102010;28;20414;-83
2021/03/17 10:11:46;;;;;;;19.50;10.33;;;6.80;64.30;;;5.73;54.95;98895.66;5100457;28;20457;-83
2021/03/17 10:14:15;;;;;;;14.15;6.63;;;6.80;64.60;;;5.96;54.49;98891.13;5101457;28;20418;-83
2021/03/17 10:16:45;;;;;;;16.20;5.60;;;6.90;65.40;;;5.78;54.81;98888.88;5101457;28;20517;-83
2021/03/17 10:19:15;;;;;;;14.35;6.43;;;6.90;64.70;;;5.87;55.51;98888.75;5101197;28;20695;-84
2021/03/17 10:21:42;;;;;;;7.90;4.97;;;6.90;65.80;;;5.75;54.72;98896.28;5101386;28;20417;-84
2021/03/17 10:24:12;;;;;;;8.10;5.40;;;6.90;64.70;;;5.47;54.75;98893.50;5101101;28;20410;-84
2021/03/17 10:26:41;;;;;;;9.80;5.70;;;6.60;64.80;;;5.19;56.13;98893.28;5101140;28;20406;-84
2021/03/17 10:29:08;;;;;;;12.63;5.45;;;6.40;65.90;;;5.28;56.24;98886.97;5100881;28;20406;-84
2021/03/17 10:31:36;;;;;;;7.18;5.28;;;6.40;66.60;;;5.28;56.31;98883.53;5101523;28;20742;-83
2021/03/17 10:34:12;;;;;;;8.80;5.05;;;6.40;66.60;;;5.30;56.82;98886.78;5104224;28;20398;-83
2021/03/17 10:36:39;;;;;;;15.27;5.47;;;6.40;67.30;;;5.57;55.71;98880.88;5104048;28;20437;-83
2021/03/17 10:39:06;;;;;;;9.23;4.75;;;6.60;67.00;;;5.61;54.47;98883.97;5102298;28;20564;-83
2021/03/17 10:41:41;;;;;;;7.15;4.10;;;6.70;64.70;;;5.70;53.49;98872.38;5101828;28;20418;-84
2021/03/17 10:44:16;;;;;;;7.00;4.03;;;6.70;63.00;;;5.76;54.59;98863.75;5103044;28;20831;-85
2021/03/17 10:47:05;;;;;;;5.20;3.28;;;6.80;64.20;;;5.69;51.32;98865.50;5100473;28;20418;-84
2021/03/17 10:49:34;;;;;;;7.68;3.47;;;6.80;60.20;;;5.85;51.69;98865.28;5062973;28;20422;-84